Duffel, Belgium
Current Conditions -  °F | °C
As of 1:20 AM on Tuesday 25 Nov 2014 (Local Time) from EBAW Reporting Station
Moderate Fog Moderate Fog  
Wind Chill: 32°   Ceiling: Unl
Heat Index: 32°   Visibility: 0.21mi
Dew Point: 30°   Wind: 0mph
Humidity: 93%   Direction: NA
Pressure: 30.33"   Gusts: NA
Location:  51.1°N, 4.51°E
Report Text: EBAW 250020Z AUTO 00000KT 0350 R11/0750V1200U R29/0800V1300U FZFG NCD 00/M01 Q1027
Loading
Personal Weather Stations






























Interactive Weather Map New forecast layout! Learn more

10-Day Weather Forecast

Advertisements
Track Severe Weather on mobile